createdAt,value
2019-02-16T00:01:45.777Z,16.00
2019-02-16T00:04:14.959Z,15.93
2019-02-16T00:06:43.961Z,16.10
2019-02-16T00:09:13.003Z,14.13
2019-02-16T00:11:42.457Z,14.43
2019-02-16T00:14:11.857Z,14.10
2019-02-16T00:16:40.847Z,15.53
2019-02-16T00:19:10.199Z,15.27
2019-02-16T00:21:39.525Z,14.93
2019-02-16T00:24:08.512Z,15.77
2019-02-16T00:26:37.559Z,14.80
2019-02-16T00:29:06.656Z,15.27
2019-02-16T00:31:35.726Z,15.00
2019-02-16T00:34:04.794Z,14.20
2019-02-16T00:36:33.845Z,14.63
2019-02-16T00:39:02.997Z,15.17
2019-02-16T00:41:32.077Z,15.80
2019-02-16T00:44:01.140Z,15.00
2019-02-16T00:46:30.217Z,15.20
2019-02-16T00:48:59.260Z,15.07
2019-02-16T00:51:28.345Z,15.60
2019-02-16T00:53:57.368Z,14.10
2019-02-16T00:56:26.410Z,14.00
2019-02-16T00:58:55.904Z,13.80
2019-02-16T01:01:25.003Z,14.20
2019-02-16T01:03:54.075Z,14.90
2019-02-16T01:06:23.113Z,14.43
2019-02-16T01:08:52.085Z,14.60
2019-02-16T01:11:21.098Z,15.00
2019-02-16T01:13:50.089Z,15.37
2019-02-16T01:16:19.107Z,14.50
2019-02-16T01:18:48.170Z,15.53
2019-02-16T01:21:22.829Z,14.40
2019-02-16T01:23:48.065Z,14.27
2019-02-16T01:26:17.083Z,14.57
2019-02-16T01:28:46.353Z,15.13
2019-02-16T01:31:15.425Z,15.43
2019-02-16T01:33:45.608Z,15.63
2019-02-16T01:36:14.641Z,16.10
2019-02-16T01:38:44.081Z,15.30
2019-02-16T01:41:13.130Z,15.47
2019-02-16T01:43:42.145Z,16.63
2019-02-16T01:46:11.197Z,16.77
2019-02-16T01:48:40.209Z,14.10
2019-02-16T01:51:09.613Z,14.73
2019-02-16T01:53:38.682Z,15.57
2019-02-16T01:56:07.625Z,16.47
2019-02-16T01:58:37.312Z,15.70
2019-02-16T02:01:06.296Z,15.47
2019-02-16T02:03:35.360Z,15.80
2019-02-16T02:06:04.383Z,14.67
2019-02-16T02:08:33.397Z,14.90
2019-02-16T02:11:02.446Z,15.20
2019-02-16T02:13:31.994Z,14.23
2019-02-16T02:16:01.079Z,14.70
2019-02-16T02:18:30.460Z,15.50
2019-02-16T02:20:59.498Z,14.97
2019-02-16T02:23:28.555Z,16.10
2019-02-16T02:25:57.845Z,15.60
2019-02-16T02:28:26.824Z,15.70
2019-02-16T02:30:55.845Z,16.60
2019-02-16T02:33:25.208Z,16.07
2019-02-16T02:35:54.265Z,16.40
2019-02-16T02:38:23.218Z,15.70
2019-02-16T02:40:52.298Z,15.50
2019-02-16T02:43:21.243Z,15.40
2019-02-16T02:45:50.253Z,14.73
2019-02-16T02:48:19.322Z,15.70
2019-02-16T02:50:48.336Z,14.67
2019-02-16T02:53:17.725Z,14.57
2019-02-16T02:55:46.676Z,14.40
2019-02-16T02:58:16.048Z,16.20
2019-02-16T03:00:45.077Z,15.77
2019-02-16T03:03:14.152Z,16.17
2019-02-16T03:05:43.209Z,14.40
2019-02-16T03:08:12.259Z,15.30
2019-02-16T03:10:41.299Z,16.60
2019-02-16T03:13:10.325Z,14.53
2019-02-16T03:15:39.284Z,16.90
2019-02-16T03:18:08.367Z,15.63
2019-02-16T03:20:37.397Z,15.50
2019-02-16T03:23:29.686Z,15.77
2019-02-16T03:26:34.878Z,16.10
2019-02-16T03:29:27.982Z,15.83
2019-02-16T03:32:27.454Z,16.40
2019-02-16T03:35:41.855Z,16.30
2019-02-16T03:39:04.913Z,15.83
2019-02-16T03:41:34.466Z,16.33
2019-02-16T03:44:03.491Z,17.00
2019-02-16T03:46:32.591Z,15.80
2019-02-16T03:49:01.629Z,17.10
2019-02-16T03:51:30.707Z,15.90
2019-02-16T03:53:59.722Z,16.97
2019-02-16T03:56:28.739Z,16.10
2019-02-16T03:58:57.800Z,16.17
2019-02-16T04:01:26.825Z,16.47
2019-02-16T04:03:55.873Z,14.93
2019-02-16T04:06:24.847Z,15.27
2019-02-16T04:08:53.782Z,15.60
2019-02-16T04:11:22.821Z,15.77
2019-02-16T04:13:52.051Z,15.37
2019-02-16T04:16:21.488Z,15.30
2019-02-16T04:18:50.868Z,15.17
2019-02-16T04:21:19.851Z,15.90
2019-02-16T04:23:48.882Z,15.53
2019-02-16T04:26:17.828Z,15.93
2019-02-16T04:28:46.821Z,15.80
2019-02-16T04:31:15.834Z,15.83
2019-02-16T04:33:44.882Z,15.87
2019-02-16T04:36:13.918Z,17.30
2019-02-16T04:38:43.235Z,16.17
2019-02-16T04:41:12.340Z,15.50
2019-02-16T04:43:41.409Z,15.93
2019-02-16T04:46:10.445Z,16.13
2019-02-16T04:48:39.490Z,15.40
2019-02-16T04:51:08.512Z,15.73
2019-02-16T04:53:37.581Z,14.80
2019-02-16T04:56:06.594Z,16.20
2019-02-16T04:58:35.667Z,15.57
2019-02-16T05:01:04.793Z,15.57
2019-02-16T05:03:33.781Z,14.63
2019-02-16T05:06:02.891Z,16.40
2019-02-16T05:08:31.834Z,15.03
2019-02-16T05:11:00.884Z,17.37
2019-02-16T05:13:29.815Z,16.77
2019-02-16T05:15:58.808Z,17.20
2019-02-16T05:18:28.121Z,16.30
2019-02-16T05:20:57.149Z,16.80
2019-02-16T05:23:26.215Z,15.73
2019-02-16T05:25:55.194Z,16.40
2019-02-16T05:28:24.412Z,16.57
2019-02-16T05:30:53.393Z,16.30
2019-02-16T05:33:22.398Z,15.90
2019-02-16T05:35:51.431Z,15.27
2019-02-16T05:38:20.457Z,15.53
2019-02-16T05:40:49.436Z,15.67
2019-02-16T05:43:18.521Z,15.47
2019-02-16T05:45:47.530Z,15.70
2019-02-16T05:48:16.555Z,15.10
2019-02-16T05:50:45.612Z,16.17
2019-02-16T05:53:14.640Z,14.60
2019-02-16T05:55:43.594Z,15.80
2019-02-16T05:58:12.970Z,16.60
2019-02-16T06:00:41.986Z,16.87
2019-02-16T06:03:11.062Z,16.30
2019-02-16T06:05:40.994Z,16.47
2019-02-16T06:08:10.222Z,17.30
2019-02-16T06:10:39.274Z,17.53
2019-02-16T06:13:08.311Z,16.70
2019-02-16T06:15:37.304Z,16.80
2019-02-16T06:18:06.636Z,17.10
2019-02-16T06:20:35.663Z,16.23
2019-02-16T06:23:05.079Z,17.20
2019-02-16T06:25:34.114Z,16.67
2019-02-16T06:28:03.122Z,16.70
2019-02-16T06:30:32.188Z,16.73
2019-02-16T06:33:01.245Z,16.40
2019-02-16T06:35:49.240Z,16.53
2019-02-16T06:38:18.311Z,16.60
2019-02-16T06:40:47.335Z,17.20
2019-02-16T06:43:16.377Z,17.17
2019-02-16T06:45:45.440Z,16.47
2019-02-16T06:48:14.486Z,17.53
2019-02-16T06:50:43.512Z,16.47
2019-02-16T06:53:13.555Z,17.37
2019-02-16T06:55:53.834Z,16.63
2019-02-16T06:58:23.222Z,16.57
2019-02-16T07:00:52.241Z,16.27
2019-02-16T07:03:21.212Z,15.80
2019-02-16T07:05:50.445Z,16.70
2019-02-16T07:08:19.502Z,18.40
2019-02-16T07:10:48.521Z,18.00
2019-02-16T07:13:17.601Z,16.60
2019-02-16T07:15:52.445Z,16.70
2019-02-16T07:18:39.005Z,16.67
2019-02-16T07:21:08.437Z,16.30
2019-02-16T07:23:37.454Z,16.73
2019-02-16T07:26:06.504Z,15.93
2019-02-16T07:28:35.438Z,16.53
2019-02-16T07:31:04.557Z,16.93
2019-02-16T07:33:33.570Z,17.37
2019-02-16T07:36:02.630Z,16.60
2019-02-16T07:38:31.678Z,17.07
2019-02-16T07:41:00.732Z,18.60
2019-02-16T07:43:57.934Z,17.50
2019-02-16T07:46:43.778Z,16.07
2019-02-16T07:49:23.475Z,17.33
2019-02-16T07:52:05.312Z,16.73
2019-02-16T07:54:53.353Z,17.43
2019-02-16T07:57:31.607Z,17.43
2019-02-16T08:00:26.181Z,18.80
2019-02-16T08:03:22.931Z,17.20
2019-02-16T08:06:14.029Z,16.23
2019-02-16T08:09:02.422Z,17.53
2019-02-16T08:11:46.552Z,16.97
2019-02-16T08:14:31.023Z,17.93
2019-02-16T08:17:06.097Z,17.97
2019-02-16T08:19:57.230Z,16.27
2019-02-16T08:22:54.189Z,18.70
2019-02-16T08:25:48.422Z,18.80
2019-02-16T08:28:45.428Z,18.43
2019-02-16T08:31:19.550Z,17.57
2019-02-16T08:34:03.832Z,17.80
2019-02-16T08:36:45.655Z,18.23
2019-02-16T08:39:28.113Z,18.07
2019-02-16T08:42:22.358Z,18.53
2019-02-16T08:45:19.786Z,18.77
2019-02-16T08:48:00.777Z,19.13
2019-02-16T08:50:47.594Z,18.53
2019-02-16T08:53:35.717Z,18.70
2019-02-16T08:56:26.663Z,18.40
2019-02-16T08:59:18.515Z,18.83
2019-02-16T09:02:12.686Z,20.07
2019-02-16T09:04:58.074Z,19.80
2019-02-16T09:07:43.761Z,18.97
2019-02-16T09:10:34.869Z,19.40
2019-02-16T09:13:22.909Z,20.47
2019-02-16T09:16:19.773Z,21.13
2019-02-16T09:19:06.770Z,20.50
2019-02-16T09:21:52.210Z,21.70
2019-02-16T09:24:37.421Z,20.83
2019-02-16T09:27:26.242Z,21.43
2019-02-16T09:30:10.124Z,21.70
2019-02-16T09:32:48.134Z,22.30
2019-02-16T09:35:38.932Z,21.93
2019-02-16T09:38:18.786Z,22.37
2019-02-16T09:41:24.431Z,21.83
2019-02-16T09:44:07.351Z,22.83
2019-02-16T09:46:45.522Z,21.90
2019-02-16T09:49:42.492Z,23.33
2019-02-16T09:52:20.224Z,22.40
2019-02-16T09:55:06.281Z,21.07
2019-02-16T09:57:57.398Z,23.80
2019-02-16T10:00:48.490Z,24.80
2019-02-16T10:03:36.527Z,25.67
2019-02-16T10:06:33.736Z,24.73
2019-02-16T10:09:14.859Z,25.03
2019-02-16T10:11:50.040Z,26.17
2019-02-16T10:14:35.841Z,25.57
2019-02-16T10:17:42.014Z,25.13
2019-02-16T10:20:26.855Z,25.30
2019-02-16T10:23:14.171Z,25.87
2019-02-16T10:25:55.056Z,26.17
2019-02-16T10:28:41.743Z,27.20
2019-02-16T10:31:48.225Z,28.50
2019-02-16T10:34:36.900Z,27.33
2019-02-16T10:37:19.868Z,29.67
2019-02-16T10:40:02.924Z,28.43
2019-02-16T10:45:38.135Z,27.97
2019-02-16T10:48:13.799Z,27.93
2019-02-16T10:50:50.814Z,28.40
2019-02-16T10:53:53.909Z,29.80
2019-02-16T10:56:52.372Z,29.10
2019-02-16T10:59:53.045Z,30.50
2019-02-16T11:02:39.842Z,30.13
2019-02-16T11:05:18.154Z,28.80
2019-02-16T11:08:04.218Z,30.13
2019-02-16T11:10:54.856Z,31.07
2019-02-16T11:13:40.533Z,31.10
2019-02-16T11:16:33.690Z,31.80
2019-02-16T11:19:14.622Z,28.20
2019-02-16T11:21:52.885Z,29.33
2019-02-16T11:24:36.002Z,30.07
2019-02-16T11:27:21.416Z,30.93
2019-02-16T11:30:05.805Z,30.30
2019-02-16T11:32:46.496Z,29.93
2019-02-16T11:35:28.259Z,29.70
2019-02-16T11:38:16.416Z,27.57
2019-02-16T11:40:53.583Z,28.77
2019-02-16T11:43:41.172Z,30.20
2019-02-16T11:46:32.286Z,30.03
2019-02-16T11:49:29.329Z,27.53
2019-02-16T11:52:23.668Z,26.83
2019-02-16T11:55:05.835Z,27.40
2019-02-16T11:57:53.879Z,26.83
2019-02-16T12:00:40.181Z,26.17
2019-02-16T12:03:32.749Z,25.50
2019-02-16T12:06:06.828Z,23.67
2019-02-16T12:09:00.914Z,25.60
2019-02-16T12:11:41.546Z,26.60
2019-02-16T12:14:28.500Z,25.40
2019-02-16T12:17:23.673Z,24.83
2019-02-16T12:20:09.003Z,26.33
2019-02-16T12:22:55.371Z,26.40
2019-02-16T12:25:45.852Z,26.00
2019-02-16T12:28:31.133Z,28.40
2019-02-16T12:31:25.099Z,27.37
2019-02-16T12:34:08.522Z,26.40
2019-02-16T12:36:48.538Z,27.80
2019-02-16T12:39:26.275Z,28.73
2019-02-16T12:42:13.500Z,31.17
2019-02-16T12:45:04.584Z,28.67
2019-02-16T12:47:55.599Z,28.23
2019-02-16T12:50:33.733Z,28.10
2019-02-16T12:53:27.790Z,28.17
2019-02-16T12:56:14.857Z,28.60
2019-02-16T12:58:49.256Z,27.20
2019-02-16T13:01:40.231Z,27.00
2019-02-16T13:04:28.271Z,30.07
2019-02-16T13:07:18.380Z,28.27
2019-02-16T13:09:59.771Z,29.03
2019-02-16T13:12:50.922Z,29.47
2019-02-16T13:15:38.370Z,28.83
2019-02-16T13:18:16.174Z,28.57
2019-02-16T13:21:02.988Z,30.50
2019-02-16T13:23:44.693Z,30.37
2019-02-16T13:26:32.813Z,29.77
2019-02-16T13:29:18.961Z,31.20
2019-02-16T13:32:00.404Z,32.23
2019-02-16T13:35:06.915Z,33.30
2019-02-16T13:37:54.691Z,30.83
2019-02-16T13:40:37.776Z,32.33
2019-02-16T13:43:29.169Z,29.83
2019-02-16T13:46:26.566Z,32.50
2019-02-16T13:49:14.563Z,30.83
2019-02-16T13:51:49.365Z,31.37
2019-02-16T13:54:23.411Z,30.53
2019-02-16T13:57:10.164Z,32.13
2019-02-16T13:59:49.649Z,31.00
2019-02-16T14:02:36.496Z,28.97
2019-02-16T14:05:20.171Z,31.23
2019-02-16T14:08:06.145Z,32.10
2019-02-16T14:10:43.654Z,30.20
2019-02-16T14:13:21.413Z,34.77
2019-02-16T14:15:55.368Z,30.80
2019-02-16T14:18:24.422Z,34.47
2019-02-16T14:20:53.408Z,32.53
2019-02-16T14:23:22.443Z,33.47
2019-02-16T14:25:51.678Z,33.47
2019-02-16T14:28:20.697Z,33.93
2019-02-16T14:30:49.757Z,32.33
2019-02-16T14:33:18.879Z,34.13
2019-02-16T14:35:47.975Z,33.00
2019-02-16T14:38:34.810Z,33.93
2019-02-16T14:41:03.870Z,35.60
2019-02-16T14:43:33.757Z,35.50
2019-02-16T14:46:02.929Z,33.70
2019-02-16T14:48:32.025Z,36.57
2019-02-16T14:51:01.056Z,35.50
2019-02-16T14:53:30.044Z,37.13
2019-02-16T14:55:59.069Z,38.40
2019-02-16T14:58:28.095Z,37.50
2019-02-16T15:00:57.183Z,39.00
2019-02-16T15:03:26.172Z,40.97
2019-02-16T15:05:55.126Z,37.93
2019-02-16T15:08:24.164Z,44.43
2019-02-16T15:10:53.242Z,38.50
2019-02-16T15:13:22.259Z,39.50
2019-02-16T15:15:51.301Z,40.07
2019-02-16T15:18:20.329Z,40.70
2019-02-16T15:20:49.406Z,40.23
2019-02-16T15:23:18.467Z,41.37
2019-02-16T15:25:47.534Z,41.47
2019-02-16T15:28:16.549Z,39.97
2019-02-16T15:30:45.616Z,40.23
2019-02-16T15:33:14.923Z,42.00
2019-02-16T15:35:43.996Z,40.07
2019-02-16T15:38:13.010Z,41.50
2019-02-16T15:40:41.993Z,41.10
2019-02-16T15:43:11.322Z,42.00
2019-02-16T15:45:40.611Z,43.17
2019-02-16T15:48:09.680Z,39.90
2019-02-16T15:50:38.682Z,42.03
2019-02-16T15:53:07.870Z,43.17
2019-02-16T15:55:36.922Z,43.47
2019-02-16T15:58:05.986Z,44.00
2019-02-16T16:00:35.006Z,41.93
2019-02-16T16:03:04.014Z,44.00
2019-02-16T16:05:33.021Z,44.97
2019-02-16T16:08:18.930Z,42.47
2019-02-16T16:10:57.175Z,42.77
2019-02-16T16:13:54.802Z,44.30
2019-02-16T16:16:45.605Z,42.37
2019-02-16T16:22:17.773Z,47.93
2019-02-16T16:24:58.106Z,47.53
2019-02-16T16:27:43.008Z,47.87
2019-02-16T16:30:21.986Z,47.97
2019-02-16T16:33:12.956Z,43.80
2019-02-16T16:36:07.123Z,43.20
2019-02-16T16:38:55.493Z,46.00
2019-02-16T16:41:42.203Z,43.93
2019-02-16T16:44:22.531Z,45.43
2019-02-16T16:47:03.669Z,45.30
2019-02-16T16:49:54.603Z,45.70
2019-02-16T16:52:48.744Z,46.37
2019-02-16T16:55:28.709Z,46.03
2019-02-16T16:58:06.346Z,45.27
2019-02-16T17:00:57.277Z,45.90
2019-02-16T17:03:48.327Z,44.47
2019-02-16T17:06:23.999Z,44.90
2019-02-16T17:09:12.154Z,47.50
2019-02-16T17:12:18.288Z,46.13
2019-02-16T17:15:06.250Z,43.30
2019-02-16T17:17:47.646Z,47.03
2019-02-16T17:20:44.894Z,43.77
2019-02-16T17:23:20.250Z,46.00
2019-02-16T17:26:02.808Z,48.53
2019-02-16T17:28:56.888Z,48.30
2019-02-16T17:31:43.891Z,46.37
2019-02-16T17:34:30.915Z,48.37
2019-02-16T17:37:34.393Z,50.20
2019-02-16T17:40:13.356Z,46.10
2019-02-16T17:43:04.402Z,47.77
2019-02-16T17:45:55.777Z,45.90
2019-02-16T17:49:02.032Z,47.73
2019-02-16T17:51:56.323Z,47.90
2019-02-16T17:54:35.973Z,48.23
2019-02-16T17:57:29.924Z,47.47
2019-02-16T18:00:16.803Z,49.17
2019-02-16T18:02:59.942Z,48.17
2019-02-16T18:05:47.908Z,47.80
2019-02-16T18:08:34.925Z,50.30
2019-02-16T18:11:22.960Z,47.80
2019-02-16T18:14:10.950Z,48.20
2019-02-16T18:17:00.236Z,50.97
2019-02-16T18:19:35.225Z,48.93
2019-02-16T18:22:16.058Z,47.63
2019-02-16T18:24:51.446Z,48.40
2019-02-16T18:27:43.551Z,49.90
2019-02-16T18:30:20.559Z,50.23
2019-02-16T18:33:20.966Z,46.73
2019-02-16T18:36:06.370Z,49.80
2019-02-16T18:38:46.850Z,48.13
2019-02-16T18:41:44.697Z,50.00
2019-02-16T18:44:48.044Z,47.13
2019-02-16T18:47:42.898Z,50.57
2019-02-16T18:50:22.796Z,49.43
2019-02-16T18:53:13.706Z,47.80
2019-02-16T18:56:01.789Z,48.80
2019-02-16T18:58:38.590Z,51.27
2019-02-16T19:01:26.655Z,48.27
2019-02-16T19:04:14.645Z,47.13
2019-02-16T19:06:57.053Z,48.73
2019-02-16T19:09:48.084Z,48.50
2019-02-16T19:12:34.823Z,50.20
2019-02-16T19:15:22.879Z,48.37
2019-02-16T19:18:18.120Z,48.97
2019-02-16T19:21:00.473Z,47.37
2019-02-16T19:23:42.525Z,48.60
2019-02-16T19:26:23.637Z,47.63
2019-02-16T19:29:14.846Z,49.60
2019-02-16T19:31:50.169Z,48.33
2019-02-16T19:34:36.302Z,46.80
2019-02-16T19:37:16.417Z,50.57
2019-02-16T19:39:55.179Z,46.87
2019-02-16T19:42:58.583Z,48.03
2019-02-16T19:45:52.402Z,50.17
2019-02-16T19:48:45.774Z,49.93
2019-02-16T19:51:40.401Z,51.10
2019-02-16T19:54:16.938Z,48.63
2019-02-16T19:57:01.953Z,50.73
2019-02-16T19:59:52.445Z,46.67
2019-02-16T20:02:32.701Z,49.90
2019-02-16T20:05:08.158Z,49.10
2019-02-16T20:07:56.148Z,50.20
2019-02-16T20:10:49.963Z,51.30
2019-02-16T20:13:47.320Z,53.87
2019-02-16T20:16:38.698Z,52.87
2019-02-16T20:19:26.738Z,54.30
2019-02-16T20:22:14.765Z,54.00
2019-02-16T20:25:05.985Z,55.20
2019-02-16T20:27:57.153Z,53.87
2019-02-16T20:30:57.229Z,56.57
2019-02-16T20:33:45.271Z,56.60
2019-02-16T20:36:30.871Z,55.60
2019-02-16T20:39:37.248Z,57.40
2019-02-16T20:42:34.492Z,55.37
2019-02-16T20:45:18.153Z,56.77
2019-02-16T20:48:15.598Z,55.10
2019-02-16T20:51:09.674Z,58.27
2019-02-16T20:54:06.991Z,56.83
2019-02-16T20:57:07.096Z,57.40
2019-02-16T20:59:47.389Z,59.30
2019-02-16T21:02:32.333Z,60.00
2019-02-16T21:05:10.290Z,58.00
2019-02-16T21:07:58.328Z,58.90
2019-02-16T21:10:49.191Z,55.77
2019-02-16T21:13:46.595Z,56.67
2019-02-16T21:16:33.595Z,58.60
2019-02-16T21:19:37.362Z,59.03
2019-02-16T21:22:40.821Z,58.10
2019-02-16T21:25:27.481Z,57.33
2019-02-16T21:28:09.493Z,58.67
2019-02-16T21:30:45.594Z,62.13
2019-02-16T21:33:25.447Z,59.77
2019-02-16T21:36:11.806Z,60.93
2019-02-16T21:39:05.230Z,61.67
2019-02-16T21:41:53.136Z,60.60
2019-02-16T21:44:33.488Z,59.70
2019-02-16T21:47:18.180Z,62.80
2019-02-16T21:50:06.196Z,62.67
2019-02-16T21:52:53.050Z,63.03
2019-02-16T21:55:39.599Z,59.47
2019-02-16T21:58:14.041Z,61.10
2019-02-16T22:01:02.059Z,62.10
2019-02-16T22:03:50.093Z,63.50
2019-02-16T22:06:56.402Z,65.03
2019-02-16T22:09:36.651Z,60.97
2019-02-16T22:12:23.278Z,61.90
2019-02-16T22:14:52.597Z,61.10
2019-02-16T22:17:21.633Z,63.40
2019-02-16T22:19:50.691Z,61.77
2019-02-16T22:22:19.709Z,64.10
2019-02-16T22:24:48.761Z,60.60
2019-02-16T22:27:17.817Z,62.90
2019-02-16T22:29:47.208Z,64.20
2019-02-16T22:32:16.522Z,65.70
2019-02-16T22:34:45.922Z,64.40
2019-02-16T22:37:14.950Z,61.93
2019-02-16T22:39:43.983Z,60.03
2019-02-16T22:42:13.060Z,64.13
2019-02-16T22:44:42.078Z,62.70
2019-02-16T22:47:11.061Z,65.17
2019-02-16T22:49:40.136Z,64.60
2019-02-16T22:52:09.487Z,66.77
2019-02-16T22:54:38.538Z,66.50
2019-02-16T22:57:07.406Z,67.40
2019-02-16T22:59:36.469Z,63.77
2019-02-16T23:02:05.787Z,62.67
2019-02-16T23:04:34.844Z,63.30
2019-02-16T23:07:03.954Z,64.70
2019-02-16T23:09:33.083Z,67.40
2019-02-16T23:12:02.474Z,66.33
2019-02-16T23:14:31.543Z,62.10
2019-02-16T23:17:00.551Z,67.77
2019-02-16T23:19:29.678Z,64.80
2019-02-16T23:21:58.705Z,65.47
2019-02-16T23:24:27.729Z,65.30
2019-02-16T23:26:56.796Z,64.20
2019-02-16T23:29:25.816Z,63.07
2019-02-16T23:31:54.847Z,66.80
2019-02-16T23:34:23.899Z,66.27
2019-02-16T23:36:52.923Z,67.87
2019-02-16T23:39:21.981Z,66.03
2019-02-16T23:41:50.920Z,64.67
2019-02-16T23:44:19.982Z,65.83
2019-02-16T23:46:51.428Z,65.73
2019-02-16T23:49:19.782Z,69.00
2019-02-16T23:51:48.760Z,67.33
2019-02-16T23:54:17.773Z,65.00
2019-02-16T23:56:46.832Z,65.07
2019-02-16T23:59:15.896Z,62.17
